createdAt,value
2017-09-17T00:00:30.630Z,97.96
2017-09-17T00:01:36.776Z,97.80
2017-09-17T00:02:44.447Z,97.23
2017-09-17T00:03:50.551Z,97.82
2017-09-17T00:04:56.855Z,98.44
2017-09-17T00:06:03.139Z,99.04
2017-09-17T00:07:09.590Z,99.13
2017-09-17T00:08:15.875Z,99.95
2017-09-17T00:09:22.196Z,100.00
2017-09-17T00:10:28.387Z,100.00
2017-09-17T00:11:35.868Z,100.00
2017-09-17T00:12:42.369Z,99.99
2017-09-17T00:13:48.959Z,99.79
2017-09-17T00:14:55.380Z,99.93
2017-09-17T00:16:01.635Z,99.72
2017-09-17T00:17:08.764Z,99.38
2017-09-17T00:18:15.029Z,98.25
2017-09-17T00:19:21.186Z,97.07
2017-09-17T00:20:27.520Z,96.50
2017-09-17T00:21:34.478Z,96.14
2017-09-17T00:22:40.943Z,96.15
2017-09-17T00:23:47.315Z,96.17
2017-09-17T00:24:53.704Z,95.88
2017-09-17T00:26:00.080Z,95.94
2017-09-17T00:27:06.576Z,97.25
2017-09-17T00:28:12.993Z,98.22
2017-09-17T00:29:19.154Z,98.43
2017-09-17T00:30:26.298Z,98.70
2017-09-17T00:31:33.253Z,98.86
2017-09-17T00:32:40.161Z,98.83
2017-09-17T00:33:46.491Z,99.02
2017-09-17T00:34:52.856Z,98.98
2017-09-17T00:35:59.523Z,99.28
2017-09-17T00:37:06.464Z,99.46
2017-09-17T00:38:12.968Z,99.95
2017-09-17T00:39:19.206Z,99.70
2017-09-17T00:40:25.521Z,99.18
2017-09-17T00:41:31.391Z,98.82
2017-09-17T00:42:38.460Z,97.74
2017-09-17T00:43:45.760Z,97.32
2017-09-17T00:44:52.405Z,98.03
2017-09-17T00:45:58.786Z,98.38
2017-09-17T00:47:05.351Z,98.50
2017-09-17T00:48:11.732Z,98.46
2017-09-17T00:49:17.915Z,98.27
2017-09-17T00:50:24.091Z,98.49
2017-09-17T00:51:29.943Z,98.56
2017-09-17T00:52:35.942Z,98.78
2017-09-17T00:53:41.420Z,98.89
2017-09-17T00:54:46.779Z,99.62
2017-09-17T00:55:52.912Z,100.00
2017-09-17T00:56:59.948Z,99.92
2017-09-17T00:58:06.163Z,99.74
2017-09-17T00:59:12.840Z,99.89
2017-09-17T01:00:18.699Z,99.87
2017-09-17T01:01:24.881Z,99.44
2017-09-17T01:02:31.087Z,99.34
2017-09-17T01:03:37.497Z,99.43
2017-09-17T01:04:43.554Z,99.48
2017-09-17T01:05:50.045Z,99.52
2017-09-17T01:06:56.356Z,99.34
2017-09-17T01:08:02.254Z,99.26
2017-09-17T01:09:08.634Z,99.18
2017-09-17T01:10:14.926Z,99.42
2017-09-17T01:11:21.509Z,99.28
2017-09-17T01:12:28.122Z,98.26
2017-09-17T01:13:35.164Z,97.64
2017-09-17T01:14:41.340Z,97.28
2017-09-17T01:15:48.063Z,97.20
2017-09-17T01:16:54.293Z,97.43
2017-09-17T01:18:00.523Z,97.50
2017-09-17T01:19:07.220Z,97.82
2017-09-17T01:20:13.603Z,98.31
2017-09-17T01:21:19.981Z,98.57
2017-09-17T01:22:26.097Z,99.04
2017-09-17T01:23:32.072Z,99.02
2017-09-17T01:24:37.926Z,99.30
2017-09-17T01:25:45.016Z,99.50
2017-09-17T01:26:51.403Z,99.61
2017-09-17T01:27:58.132Z,99.67
2017-09-17T01:29:04.745Z,99.65
2017-09-17T01:30:10.953Z,99.54
2017-09-17T01:31:17.470Z,99.48
2017-09-17T01:32:24.054Z,99.29
2017-09-17T01:33:30.275Z,99.30
2017-09-17T01:34:36.478Z,99.48
2017-09-17T01:35:43.022Z,99.55
2017-09-17T01:36:49.352Z,99.96
2017-09-17T01:37:55.649Z,99.92
2017-09-17T01:39:01.843Z,100.00
2017-09-17T01:40:07.659Z,100.00
2017-09-17T01:41:13.973Z,99.11
2017-09-17T01:42:20.258Z,98.22
2017-09-17T01:43:26.595Z,98.07
2017-09-17T01:44:33.191Z,98.57
2017-09-17T01:45:39.556Z,98.68
2017-09-17T01:46:46.327Z,98.90
2017-09-17T01:47:52.705Z,99.14
2017-09-17T01:48:59.282Z,99.78
2017-09-17T01:50:05.795Z,99.86
2017-09-17T01:51:12.191Z,99.44
2017-09-17T01:52:18.725Z,99.36
2017-09-17T01:53:24.847Z,99.51
2017-09-17T01:54:31.567Z,99.76
2017-09-17T01:55:37.874Z,100.00
2017-09-17T01:56:44.286Z,100.00
2017-09-17T01:57:50.741Z,100.00
2017-09-17T01:58:56.804Z,100.00
2017-09-17T02:00:03.103Z,100.00
2017-09-17T02:01:09.425Z,100.00
2017-09-17T02:02:16.948Z,100.00
2017-09-17T02:03:23.211Z,100.00
2017-09-17T02:04:29.667Z,100.00
2017-09-17T02:05:36.190Z,100.00
2017-09-17T02:06:42.714Z,100.00
2017-09-17T02:07:48.896Z,99.72
2017-09-17T02:08:55.348Z,99.36
2017-09-17T02:10:01.656Z,99.26
2017-09-17T02:11:08.262Z,99.38
2017-09-17T02:12:14.369Z,99.35
2017-09-17T02:13:20.597Z,98.75
2017-09-17T02:14:26.816Z,97.72
2017-09-17T02:15:34.444Z,97.13
2017-09-17T02:16:41.782Z,97.53
2017-09-17T02:17:48.041Z,97.91
2017-09-17T02:18:55.309Z,98.06
2017-09-17T02:20:02.618Z,98.05
2017-09-17T02:21:09.129Z,98.08
2017-09-17T02:22:16.396Z,98.19
2017-09-17T02:23:23.667Z,97.76
2017-09-17T02:24:31.220Z,97.63
2017-09-17T02:25:37.711Z,98.10
2017-09-17T02:26:44.202Z,98.36
2017-09-17T02:27:50.828Z,98.81
2017-09-17T02:28:58.068Z,100.00
2017-09-17T02:30:03.946Z,100.00
2017-09-17T02:31:11.291Z,100.00
2017-09-17T02:32:17.704Z,100.00
2017-09-17T02:33:24.340Z,100.00
2017-09-17T02:34:31.271Z,100.00
2017-09-17T02:35:38.054Z,100.00
2017-09-17T02:36:44.400Z,100.00
2017-09-17T02:37:50.648Z,100.00
2017-09-17T02:38:57.851Z,100.00
2017-09-17T02:40:03.731Z,100.00
2017-09-17T02:41:10.299Z,100.00
2017-09-17T02:42:16.370Z,100.00
2017-09-17T02:43:23.502Z,100.00
2017-09-17T02:44:30.113Z,100.00
2017-09-17T02:45:36.516Z,100.00
2017-09-17T02:46:42.642Z,100.00
2017-09-17T02:47:48.817Z,100.00
2017-09-17T02:48:55.044Z,100.00
2017-09-17T02:50:02.293Z,100.00
2017-09-17T02:51:09.230Z,100.00
2017-09-17T02:52:15.530Z,100.00
2017-09-17T02:53:21.747Z,99.58
2017-09-17T02:54:28.174Z,99.49
2017-09-17T02:55:35.259Z,99.82
2017-09-17T02:56:41.611Z,100.00
2017-09-17T02:57:48.624Z,100.00
2017-09-17T02:58:55.551Z,100.00
2017-09-17T03:00:02.273Z,99.94
2017-09-17T03:01:08.231Z,99.43
2017-09-17T03:02:14.485Z,99.57
2017-09-17T03:03:20.745Z,99.68
2017-09-17T03:04:27.147Z,99.87
2017-09-17T03:05:33.525Z,100.00
2017-09-17T03:06:40.021Z,100.00
2017-09-17T03:07:46.229Z,100.00
2017-09-17T03:08:52.548Z,100.00
2017-09-17T03:09:58.914Z,100.00
2017-09-17T03:11:05.800Z,100.00
2017-09-17T03:12:13.510Z,100.00
2017-09-17T03:13:20.138Z,100.00
2017-09-17T03:14:26.474Z,100.00
2017-09-17T03:15:32.659Z,100.00
2017-09-17T03:16:39.509Z,100.00
2017-09-17T03:17:46.643Z,100.00
2017-09-17T03:18:53.065Z,100.00
2017-09-17T03:19:59.672Z,100.00
2017-09-17T03:21:06.190Z,100.00
2017-09-17T03:22:12.754Z,100.00
2017-09-17T03:23:19.151Z,100.00
2017-09-17T03:24:26.043Z,100.00
2017-09-17T03:25:32.439Z,100.00
2017-09-17T03:26:39.652Z,100.00
2017-09-17T03:27:46.090Z,100.00
2017-09-17T03:28:52.521Z,100.00
2017-09-17T03:29:58.701Z,100.00
2017-09-17T03:31:05.957Z,100.00
2017-09-17T03:32:12.285Z,100.00
2017-09-17T03:33:18.794Z,100.00
2017-09-17T03:34:25.344Z,99.89
2017-09-17T03:35:31.637Z,99.73
2017-09-17T03:36:38.136Z,99.47
2017-09-17T03:37:45.009Z,99.51
2017-09-17T03:38:51.387Z,99.79
2017-09-17T03:39:57.735Z,99.82
2017-09-17T03:41:04.158Z,100.00
2017-09-17T03:42:10.090Z,100.00
2017-09-17T03:43:16.766Z,100.00
2017-09-17T03:44:23.032Z,99.75
2017-09-17T03:45:29.326Z,99.50
2017-09-17T03:46:35.713Z,99.44
2017-09-17T03:47:42.201Z,99.99
2017-09-17T03:48:48.455Z,99.67
2017-09-17T03:49:55.106Z,99.06
2017-09-17T03:51:01.426Z,99.10
2017-09-17T03:52:07.707Z,98.86
2017-09-17T03:53:14.042Z,99.38
2017-09-17T03:54:21.107Z,100.00
2017-09-17T03:55:27.688Z,100.00
2017-09-17T03:56:33.985Z,100.00
2017-09-17T03:57:41.168Z,100.00
2017-09-17T03:58:47.555Z,100.00
2017-09-17T03:59:54.419Z,100.00
2017-09-17T04:01:00.797Z,100.00
2017-09-17T04:02:08.028Z,100.00
2017-09-17T04:03:15.555Z,100.00
2017-09-17T04:04:21.996Z,100.00
2017-09-17T04:05:28.812Z,99.52
2017-09-17T04:06:35.928Z,98.98
2017-09-17T04:07:42.461Z,98.67
2017-09-17T04:08:49.071Z,98.66
2017-09-17T04:09:56.087Z,100.00
2017-09-17T04:11:02.507Z,100.00
2017-09-17T04:12:09.123Z,100.00
2017-09-17T04:13:16.422Z,100.00
2017-09-17T04:14:23.405Z,100.00
2017-09-17T04:15:31.007Z,100.00
2017-09-17T04:16:39.129Z,100.00
2017-09-17T04:17:46.372Z,100.00
2017-09-17T04:18:56.420Z,100.00
2017-09-17T04:20:04.117Z,100.00
2017-09-17T04:21:12.437Z,100.00
2017-09-17T04:22:21.347Z,100.00
2017-09-17T04:23:30.572Z,100.00
2017-09-17T04:24:38.786Z,100.00
2017-09-17T04:25:47.449Z,100.00
2017-09-17T04:26:55.959Z,100.00
2017-09-17T04:28:03.714Z,100.00
2017-09-17T04:29:11.750Z,100.00
2017-09-17T04:30:19.686Z,100.00
2017-09-17T04:31:28.455Z,100.00
2017-09-17T04:32:37.601Z,99.43
2017-09-17T04:33:45.759Z,99.66
2017-09-17T04:34:54.778Z,100.00
2017-09-17T04:36:03.693Z,99.71
2017-09-17T04:37:13.713Z,100.00
2017-09-17T04:38:23.686Z,100.00
2017-09-17T04:39:34.049Z,100.00
2017-09-17T04:40:43.683Z,100.00
2017-09-17T04:41:52.996Z,100.00
2017-09-17T04:43:02.706Z,100.00
2017-09-17T04:44:10.733Z,100.00
2017-09-17T04:45:20.745Z,100.00
2017-09-17T04:46:31.779Z,100.00
2017-09-17T04:47:41.699Z,100.00
2017-09-17T04:48:51.706Z,100.00
2017-09-17T04:50:02.788Z,100.00
2017-09-17T04:51:12.750Z,100.00
2017-09-17T04:52:21.714Z,100.00
2017-09-17T04:53:31.821Z,100.00
2017-09-17T04:54:41.599Z,100.00
2017-09-17T04:55:50.731Z,100.00
2017-09-17T04:56:59.620Z,100.00
2017-09-17T04:58:10.741Z,100.00
2017-09-17T04:59:21.578Z,100.00
2017-09-17T05:00:33.645Z,100.00
2017-09-17T05:01:42.747Z,100.00
2017-09-17T05:02:52.648Z,100.00
2017-09-17T05:04:04.695Z,99.86
2017-09-17T05:05:14.751Z,100.00
2017-09-17T05:06:23.647Z,100.00
2017-09-17T05:07:33.964Z,100.00
2017-09-17T05:08:43.677Z,100.00
2017-09-17T05:09:53.626Z,100.00
2017-09-17T05:11:04.593Z,100.00
2017-09-17T05:12:13.683Z,100.00
2017-09-17T05:13:24.545Z,100.00
2017-09-17T05:14:33.655Z,100.00
2017-09-17T05:15:43.726Z,100.00
2017-09-17T05:16:52.731Z,100.00
2017-09-17T05:18:01.626Z,100.00
2017-09-17T05:19:10.622Z,100.00
2017-09-17T05:20:19.579Z,100.00
2017-09-17T05:21:28.601Z,100.00
2017-09-17T05:22:37.441Z,100.00
2017-09-17T05:23:46.287Z,100.00
2017-09-17T05:24:53.928Z,100.00
2017-09-17T05:26:03.627Z,100.00
2017-09-17T05:27:17.677Z,100.00
2017-09-17T05:28:28.839Z,100.00
2017-09-17T05:29:38.643Z,100.00
2017-09-17T05:30:49.575Z,100.00
2017-09-17T05:31:59.780Z,100.00
2017-09-17T05:33:09.711Z,100.00
2017-09-17T05:34:19.737Z,100.00
2017-09-17T05:35:29.766Z,100.00
2017-09-17T05:36:38.757Z,99.94
2017-09-17T05:37:48.683Z,99.90
2017-09-17T05:38:59.698Z,99.97
2017-09-17T05:40:09.662Z,99.95
2017-09-17T05:41:21.757Z,100.00
2017-09-17T05:42:31.916Z,100.00
2017-09-17T05:43:42.586Z,100.00
2017-09-17T05:44:53.063Z,100.00
2017-09-17T05:46:06.782Z,100.00
2017-09-17T05:47:19.821Z,100.00
2017-09-17T05:48:29.625Z,100.00
2017-09-17T05:49:39.812Z,100.00
2017-09-17T05:50:49.674Z,100.00
2017-09-17T05:52:00.550Z,100.00
2017-09-17T05:53:10.702Z,100.00
2017-09-17T05:54:20.716Z,100.00
2017-09-17T05:55:30.637Z,100.00
2017-09-17T05:56:40.671Z,100.00
2017-09-17T05:57:50.486Z,100.00
2017-09-17T05:59:00.598Z,100.00
2017-09-17T06:00:12.598Z,100.00
2017-09-17T06:01:21.595Z,100.00
2017-09-17T06:02:31.495Z,100.00
2017-09-17T06:03:42.302Z,100.00
2017-09-17T06:04:59.642Z,100.00
2017-09-17T06:06:09.538Z,100.00
2017-09-17T06:07:18.593Z,100.00
2017-09-17T06:08:30.603Z,99.94
2017-09-17T06:09:40.657Z,99.60
2017-09-17T06:10:50.652Z,99.23
2017-09-17T06:12:01.339Z,99.12
2017-09-17T06:13:10.687Z,99.11
2017-09-17T06:14:21.605Z,99.08
2017-09-17T06:15:32.568Z,99.29
2017-09-17T06:16:44.478Z,98.74
2017-09-17T06:17:54.632Z,98.76
2017-09-17T06:19:05.546Z,98.98
2017-09-17T06:20:16.548Z,99.05
2017-09-17T06:21:26.573Z,98.93
2017-09-17T06:22:36.569Z,98.64
2017-09-17T06:23:46.656Z,97.39
2017-09-17T06:24:54.694Z,97.65
2017-09-17T06:26:03.616Z,97.88
2017-09-17T06:27:13.652Z,97.90
2017-09-17T06:28:23.546Z,97.78
2017-09-17T06:29:33.515Z,98.13
2017-09-17T06:30:43.428Z,98.22
2017-09-17T06:31:53.501Z,99.07
2017-09-17T06:33:03.551Z,98.15
2017-09-17T06:34:13.445Z,97.58
2017-09-17T06:35:25.454Z,97.38
2017-09-17T06:36:34.729Z,96.72
2017-09-17T06:37:44.471Z,96.09
2017-09-17T06:38:56.550Z,96.49
2017-09-17T06:40:08.387Z,96.41
2017-09-17T06:41:19.448Z,96.50
2017-09-17T06:42:29.573Z,97.08
2017-09-17T06:43:40.519Z,95.98
2017-09-17T06:44:50.472Z,95.10
2017-09-17T06:45:59.423Z,94.23
2017-09-17T06:47:10.438Z,93.90
2017-09-17T06:48:20.576Z,92.90
2017-09-17T06:49:31.513Z,91.29
2017-09-17T06:50:43.390Z,91.56
2017-09-17T06:51:54.566Z,90.62
2017-09-17T06:53:04.554Z,89.59
2017-09-17T06:54:14.531Z,88.34
2017-09-17T06:55:24.403Z,87.62
2017-09-17T06:56:34.493Z,86.72
2017-09-17T06:57:44.408Z,86.65
2017-09-17T06:58:53.426Z,86.54
2017-09-17T07:00:04.500Z,86.50
2017-09-17T07:01:16.540Z,87.81
2017-09-17T07:02:26.786Z,88.57
2017-09-17T07:03:35.287Z,88.85
2017-09-17T07:04:43.405Z,89.14
2017-09-17T07:05:52.360Z,88.84
2017-09-17T07:07:00.285Z,88.74
2017-09-17T07:08:08.415Z,89.12
2017-09-17T07:09:16.178Z,88.39
2017-09-17T07:10:24.430Z,88.49
2017-09-17T07:11:33.326Z,88.27
2017-09-17T07:12:41.313Z,88.77
2017-09-17T07:13:49.249Z,88.46
2017-09-17T07:14:58.275Z,88.11
2017-09-17T07:16:07.292Z,87.26
2017-09-17T07:17:15.263Z,87.06
2017-09-17T07:18:23.239Z,86.56
2017-09-17T07:19:31.336Z,86.08
2017-09-17T07:20:41.357Z,87.03
2017-09-17T07:21:49.222Z,86.16
2017-09-17T07:22:57.191Z,85.77
2017-09-17T07:24:06.155Z,86.13
2017-09-17T07:25:13.728Z,86.31
2017-09-17T07:26:21.180Z,85.29
2017-09-17T07:27:29.149Z,85.33
2017-09-17T07:28:37.180Z,85.82
2017-09-17T07:29:44.701Z,86.09
2017-09-17T07:30:53.130Z,86.50
2017-09-17T07:32:00.149Z,87.41
2017-09-17T07:33:07.606Z,86.82
2017-09-17T07:34:15.058Z,86.47
2017-09-17T07:35:22.162Z,85.96
2017-09-17T07:36:30.499Z,85.93
2017-09-17T07:37:39.240Z,86.22
2017-09-17T07:38:47.112Z,85.79
2017-09-17T07:39:54.663Z,85.70
2017-09-17T07:41:02.210Z,85.51
2017-09-17T07:42:10.191Z,85.76
2017-09-17T07:43:18.126Z,85.00
2017-09-17T07:44:26.168Z,85.18
2017-09-17T07:45:33.757Z,86.07
2017-09-17T07:46:42.182Z,84.45
2017-09-17T07:47:50.154Z,84.95
2017-09-17T07:48:57.683Z,85.10
2017-09-17T07:50:05.273Z,84.99
2017-09-17T07:51:13.222Z,84.20
2017-09-17T07:52:20.634Z,84.21
2017-09-17T07:53:28.097Z,84.49
2017-09-17T07:54:36.177Z,85.42
2017-09-17T07:55:45.087Z,84.98
2017-09-17T07:56:54.159Z,84.33
2017-09-17T07:58:02.191Z,83.35
2017-09-17T07:59:10.182Z,83.50
2017-09-17T08:00:19.265Z,82.10
2017-09-17T08:01:27.148Z,81.88
2017-09-17T08:02:35.094Z,81.73
2017-09-17T08:03:43.318Z,80.93
2017-09-17T08:04:52.164Z,80.28
2017-09-17T08:05:59.199Z,81.66
2017-09-17T08:07:06.927Z,81.22
2017-09-17T08:08:15.030Z,81.60
2017-09-17T08:09:23.232Z,81.06
2017-09-17T08:10:31.202Z,80.61
2017-09-17T08:11:38.576Z,81.03
2017-09-17T08:12:46.075Z,78.78
2017-09-17T08:13:53.587Z,78.67
2017-09-17T08:15:01.760Z,77.90
2017-09-17T08:16:10.183Z,78.54
2017-09-17T08:17:17.547Z,78.18
2017-09-17T08:18:25.084Z,77.35
2017-09-17T08:19:33.226Z,77.74
2017-09-17T08:20:41.123Z,79.36
2017-09-17T08:21:49.063Z,77.96
2017-09-17T08:22:56.106Z,78.85
2017-09-17T08:24:03.855Z,78.40
2017-09-17T08:25:11.904Z,77.50
2017-09-17T08:26:19.343Z,77.50
2017-09-17T08:27:28.084Z,77.75
2017-09-17T08:28:35.518Z,77.49
2017-09-17T08:29:44.230Z,77.75
2017-09-17T08:30:52.996Z,75.42
2017-09-17T08:32:00.100Z,76.09
2017-09-17T08:33:07.964Z,75.21
2017-09-17T08:34:16.051Z,76.87
2017-09-17T08:35:23.551Z,76.34
2017-09-17T08:36:31.152Z,74.99
2017-09-17T08:37:39.015Z,74.27
2017-09-17T08:38:46.047Z,75.46
2017-09-17T08:39:54.503Z,75.24
2017-09-17T08:41:03.142Z,74.19
2017-09-17T08:42:12.071Z,72.55
2017-09-17T08:43:20.040Z,74.23
2017-09-17T08:44:29.039Z,74.75
2017-09-17T08:45:37.116Z,74.63
2017-09-17T08:46:45.375Z,73.80
2017-09-17T08:47:53.051Z,75.81
2017-09-17T08:49:00.540Z,75.70
2017-09-17T08:50:07.531Z,74.94
2017-09-17T08:51:14.969Z,74.93
2017-09-17T08:52:23.005Z,74.74
2017-09-17T08:53:32.096Z,71.89
2017-09-17T08:54:41.044Z,72.49
2017-09-17T08:55:50.392Z,72.01
2017-09-17T08:57:00.140Z,71.46
2017-09-17T08:58:09.156Z,72.23
2017-09-17T08:59:18.116Z,72.91
2017-09-17T09:00:26.028Z,72.72
2017-09-17T09:01:35.020Z,71.74
2017-09-17T09:02:44.451Z,72.99
2017-09-17T09:03:54.205Z,72.09
2017-09-17T09:05:02.113Z,73.87
2017-09-17T09:06:16.125Z,72.78
2017-09-17T09:07:24.303Z,72.86
2017-09-17T09:08:32.047Z,71.03
2017-09-17T09:09:40.909Z,72.44
2017-09-17T09:10:49.904Z,72.34
2017-09-17T09:11:59.027Z,71.96
2017-09-17T09:13:08.062Z,72.69
2017-09-17T09:14:16.054Z,70.12
2017-09-17T09:15:24.998Z,67.48
2017-09-17T09:16:35.027Z,68.57
2017-09-17T09:17:44.077Z,68.68
2017-09-17T09:18:52.124Z,68.29
2017-09-17T09:19:59.463Z,69.15
2017-09-17T09:21:07.084Z,68.43
2017-09-17T09:22:14.975Z,69.13
2017-09-17T09:23:24.063Z,67.49
2017-09-17T09:24:31.937Z,68.29
2017-09-17T09:25:39.100Z,68.93
2017-09-17T09:26:46.969Z,68.86
2017-09-17T09:27:55.998Z,68.34
2017-09-17T09:29:05.087Z,68.29
2017-09-17T09:30:13.030Z,69.61
2017-09-17T09:31:23.062Z,68.65
2017-09-17T09:32:34.116Z,67.21
2017-09-17T09:33:41.947Z,67.29
2017-09-17T09:34:50.350Z,69.24
2017-09-17T09:36:00.037Z,68.23
2017-09-17T09:37:09.883Z,67.57
2017-09-17T09:38:18.750Z,67.92
2017-09-17T09:39:27.901Z,67.49
2017-09-17T09:40:36.019Z,67.70
2017-09-17T09:41:43.959Z,68.69
2017-09-17T09:42:51.931Z,67.28
2017-09-17T09:43:59.964Z,65.66
2017-09-17T09:45:07.835Z,63.87
2017-09-17T09:46:15.983Z,64.81
2017-09-17T09:47:24.915Z,65.06
2017-09-17T09:48:33.998Z,65.49
2017-09-17T09:49:43.081Z,64.20
2017-09-17T09:50:52.898Z,63.57
2017-09-17T09:52:01.007Z,63.15
2017-09-17T09:53:08.903Z,64.15
2017-09-17T09:54:16.924Z,64.64
2017-09-17T09:55:25.023Z,63.18
2017-09-17T09:56:33.987Z,63.30
2017-09-17T09:57:41.967Z,63.77
2017-09-17T09:58:49.982Z,61.66
2017-09-17T10:00:00.084Z,62.64
2017-09-17T10:01:10.903Z,62.71
2017-09-17T10:02:20.014Z,60.09
2017-09-17T10:03:27.874Z,62.24
2017-09-17T10:04:36.894Z,63.27
2017-09-17T10:05:47.773Z,62.52
2017-09-17T10:06:57.101Z,62.99
2017-09-17T10:08:06.003Z,60.94
2017-09-17T10:09:14.896Z,61.42
2017-09-17T10:10:25.986Z,61.63
2017-09-17T10:11:38.118Z,61.74
2017-09-17T10:12:47.947Z,62.93
2017-09-17T10:14:00.130Z,62.89
2017-09-17T10:15:12.531Z,61.96
2017-09-17T10:18:34.110Z,61.22
2017-09-17T10:19:44.918Z,63.64
2017-09-17T10:20:54.948Z,63.14
2017-09-17T10:22:05.048Z,64.68
2017-09-17T10:23:15.082Z,64.08
2017-09-17T10:24:29.163Z,64.79
2017-09-17T10:25:59.847Z,64.95
2017-09-17T10:27:13.343Z,65.51
2017-09-17T10:28:46.975Z,63.80
2017-09-17T10:29:55.695Z,63.74
2017-09-17T10:31:35.764Z,63.84
2017-09-17T10:32:51.047Z,63.18
2017-09-17T10:34:02.424Z,64.76
2017-09-17T10:35:12.071Z,64.73
2017-09-17T10:36:22.919Z,64.93
2017-09-17T10:37:32.978Z,63.64
2017-09-17T10:38:44.137Z,63.01
2017-09-17T10:39:54.198Z,62.45
2017-09-17T10:41:03.931Z,62.94
2017-09-17T10:42:14.954Z,64.45
2017-09-17T10:43:25.597Z,61.75
2017-09-17T10:44:35.985Z,60.33
2017-09-17T10:45:46.957Z,61.49
2017-09-17T10:46:57.954Z,60.77
2017-09-17T10:48:10.082Z,61.84
2017-09-17T10:49:19.927Z,60.43
2017-09-17T10:50:30.165Z,60.84
2017-09-17T10:51:40.027Z,59.66
2017-09-17T10:52:49.995Z,60.61
2017-09-17T10:54:02.175Z,59.52
2017-09-17T10:55:11.900Z,59.00
2017-09-17T10:56:22.078Z,57.70
2017-09-17T10:57:35.063Z,57.36
2017-09-17T10:58:45.071Z,58.59
2017-09-17T10:59:57.191Z,57.14
2017-09-17T11:01:05.776Z,57.17
2017-09-17T11:02:15.059Z,55.57
2017-09-17T11:03:31.019Z,56.99
2017-09-17T11:04:43.001Z,56.22
2017-09-17T11:05:52.881Z,56.15
2017-09-17T11:07:03.847Z,53.75
2017-09-17T11:08:15.142Z,55.51
2017-09-17T11:09:24.022Z,54.08
2017-09-17T11:10:33.915Z,55.01
2017-09-17T11:11:42.917Z,54.06
2017-09-17T11:12:53.007Z,51.81
2017-09-17T11:14:04.812Z,53.27
2017-09-17T11:15:14.035Z,48.42
2017-09-17T11:16:26.942Z,48.28
2017-09-17T11:17:38.947Z,51.32
2017-09-17T11:18:48.977Z,49.52
2017-09-17T11:20:00.024Z,49.17
2017-09-17T11:21:09.945Z,47.55
2017-09-17T11:22:19.789Z,45.96
2017-09-17T11:23:29.865Z,46.36
2017-09-17T11:24:40.904Z,45.55
2017-09-17T11:25:53.817Z,46.16
2017-09-17T11:27:04.988Z,47.49
2017-09-17T11:28:16.950Z,49.53
2017-09-17T11:29:26.951Z,50.01
2017-09-17T11:30:37.592Z,51.04
2017-09-17T11:31:46.970Z,52.09
2017-09-17T11:32:58.186Z,51.23
2017-09-17T11:34:08.848Z,51.59
2017-09-17T11:35:20.929Z,52.05
2017-09-17T11:36:32.963Z,48.96
2017-09-17T11:37:42.909Z,50.55
2017-09-17T11:38:53.907Z,50.32
2017-09-17T11:40:04.801Z,51.24
2017-09-17T11:41:15.944Z,52.25
2017-09-17T11:42:26.800Z,50.44
2017-09-17T11:43:38.020Z,50.23
2017-09-17T11:44:48.947Z,50.00
2017-09-17T11:46:00.914Z,51.46
2017-09-17T11:47:12.937Z,50.64
2017-09-17T11:48:23.038Z,49.45
2017-09-17T11:49:32.797Z,49.69
2017-09-17T11:50:44.985Z,50.49
2017-09-17T11:51:56.916Z,53.25
2017-09-17T11:53:07.877Z,49.75
2017-09-17T11:54:20.087Z,51.38
2017-09-17T11:55:30.753Z,51.77
2017-09-17T11:56:39.493Z,50.26
2017-09-17T11:57:48.794Z,49.27
2017-09-17T11:58:58.960Z,49.83
2017-09-17T12:00:08.899Z,50.90
2017-09-17T12:01:18.966Z,50.35
2017-09-17T12:02:28.457Z,49.10
2017-09-17T12:03:37.847Z,48.04
2017-09-17T12:04:47.850Z,48.10
2017-09-17T12:05:57.892Z,48.21
2017-09-17T12:07:09.818Z,49.29
2017-09-17T12:08:20.786Z,48.91
2017-09-17T12:09:31.881Z,48.76
2017-09-17T12:10:42.874Z,50.09
2017-09-17T12:11:54.899Z,50.68
2017-09-17T12:13:05.816Z,50.93
2017-09-17T12:14:15.899Z,51.22
2017-09-17T12:15:25.878Z,49.03
2017-09-17T12:16:35.763Z,49.28
2017-09-17T12:17:45.734Z,48.45
2017-09-17T12:18:56.853Z,48.40
2017-09-17T12:20:06.682Z,50.41
2017-09-17T12:21:16.951Z,50.25
2017-09-17T12:22:26.831Z,50.42
2017-09-17T12:23:35.701Z,50.23
2017-09-17T12:24:45.844Z,51.21
2017-09-17T12:25:56.688Z,51.19
2017-09-17T12:27:07.022Z,48.63
2017-09-17T12:28:17.717Z,48.39
2017-09-17T12:29:27.699Z,48.58
2017-09-17T12:30:37.840Z,49.72
2017-09-17T12:31:51.084Z,50.28
2017-09-17T12:33:03.731Z,50.04
2017-09-17T12:34:13.844Z,49.61
2017-09-17T12:35:24.757Z,50.72
2017-09-17T12:36:35.715Z,51.96
2017-09-17T12:37:46.830Z,51.18
2017-09-17T12:38:56.809Z,51.58
2017-09-17T12:40:08.837Z,51.90
2017-09-17T12:41:19.736Z,53.01
2017-09-17T12:42:31.680Z,52.46
2017-09-17T12:43:41.821Z,51.56
2017-09-17T12:44:53.844Z,51.63
2017-09-17T12:46:04.697Z,51.21
2017-09-17T12:47:15.809Z,51.96
2017-09-17T12:48:25.788Z,52.54
2017-09-17T12:49:40.778Z,52.80
2017-09-17T12:50:50.790Z,51.88
2017-09-17T12:52:00.641Z,49.99
2017-09-17T12:53:11.732Z,50.93
2017-09-17T12:54:25.942Z,51.73
2017-09-17T12:55:37.950Z,49.52
2017-09-17T12:56:47.792Z,51.22
2017-09-17T12:57:58.959Z,49.94
2017-09-17T12:59:09.774Z,51.52
2017-09-17T13:00:19.778Z,53.84
2017-09-17T13:01:29.618Z,54.00
2017-09-17T13:02:40.715Z,54.15
2017-09-17T13:03:56.940Z,53.27
2017-09-17T13:05:11.983Z,53.04
2017-09-17T13:06:27.822Z,54.61
2017-09-17T13:07:40.743Z,53.72
2017-09-17T13:08:54.631Z,52.77
2017-09-17T13:10:09.777Z,53.14
2017-09-17T13:11:22.789Z,52.82
2017-09-17T13:12:42.634Z,54.84
2017-09-17T13:13:56.917Z,55.88
2017-09-17T13:15:08.745Z,55.52
2017-09-17T13:16:22.675Z,54.27
2017-09-17T13:17:34.757Z,56.36
2017-09-17T13:18:45.659Z,54.77
2017-09-17T13:19:57.602Z,53.00
2017-09-17T13:21:09.503Z,54.08
2017-09-17T13:22:20.613Z,54.07
2017-09-17T13:23:31.690Z,53.29
2017-09-17T13:24:39.835Z,55.53
2017-09-17T13:25:50.694Z,56.35
2017-09-17T13:27:01.748Z,58.33
2017-09-17T13:28:14.677Z,58.96
2017-09-17T13:29:27.464Z,59.79
2017-09-17T13:30:37.553Z,61.26
2017-09-17T13:31:48.343Z,60.62
2017-09-17T13:32:57.883Z,60.63
2017-09-17T13:34:06.536Z,64.30
2017-09-17T13:35:15.428Z,56.63
2017-09-17T13:36:23.591Z,59.29
2017-09-17T13:37:32.652Z,59.81
2017-09-17T13:38:42.427Z,55.36
2017-09-17T13:39:50.502Z,53.64
2017-09-17T13:41:02.740Z,54.57
2017-09-17T13:42:12.353Z,53.96
2017-09-17T13:43:21.407Z,55.62
2017-09-17T13:44:31.508Z,55.60
2017-09-17T13:45:41.482Z,55.26
2017-09-17T13:46:51.499Z,54.62
2017-09-17T13:48:02.534Z,54.81
2017-09-17T13:49:12.363Z,54.78
2017-09-17T13:50:23.613Z,54.41
2017-09-17T13:51:32.563Z,55.78
2017-09-17T13:52:43.648Z,57.86
2017-09-17T13:53:53.597Z,56.71
2017-09-17T13:55:04.667Z,59.55
2017-09-17T13:56:14.443Z,58.39
2017-09-17T13:57:24.369Z,58.07
2017-09-17T13:58:35.562Z,61.99
2017-09-17T14:00:03.752Z,60.07
2017-09-17T14:01:26.493Z,59.09
2017-09-17T14:02:42.614Z,60.02
2017-09-17T14:04:03.599Z,59.85
2017-09-17T14:05:18.575Z,60.75
2017-09-17T14:06:48.812Z,61.91
2017-09-17T14:08:17.734Z,61.54
2017-09-17T14:09:43.672Z,62.18
2017-09-17T14:11:00.671Z,63.68
2017-09-17T14:12:12.618Z,65.64
2017-09-17T14:13:26.745Z,67.63
2017-09-17T14:14:42.592Z,67.42
2017-09-17T14:15:56.614Z,65.53
2017-09-17T14:17:09.838Z,65.50
2017-09-17T14:18:24.624Z,65.89
2017-09-17T14:19:37.719Z,66.10
2017-09-17T14:20:51.540Z,65.61
2017-09-17T14:22:04.399Z,65.51
2017-09-17T14:23:18.795Z,65.23
2017-09-17T14:24:33.752Z,68.96
2017-09-17T14:25:48.334Z,64.06
2017-09-17T14:27:01.493Z,64.40
2017-09-17T14:28:15.678Z,62.11
2017-09-17T14:29:29.645Z,62.38
2017-09-17T14:30:43.616Z,62.59
2017-09-17T14:31:57.442Z,63.70
2017-09-17T14:33:11.541Z,63.63
2017-09-17T14:34:26.778Z,66.13
2017-09-17T14:35:43.708Z,66.25
2017-09-17T14:36:57.784Z,67.33
2017-09-17T14:38:15.762Z,68.93
2017-09-17T14:39:32.732Z,71.96
2017-09-17T14:40:47.717Z,72.62
2017-09-17T14:42:00.555Z,74.71
2017-09-17T14:43:16.527Z,75.21
2017-09-17T14:44:29.776Z,75.08
2017-09-17T14:45:43.543Z,76.78
2017-09-17T14:46:58.638Z,78.72
2017-09-17T14:48:14.537Z,80.00